createdAt,value
2017-05-12T04:44:10.632Z,10
2017-05-12T04:44:36.112Z,10
2017-05-12T04:45:01.608Z,10
2017-05-12T04:45:27.079Z,10
2017-05-12T04:45:52.548Z,15
2017-05-12T04:46:18.055Z,15
2017-05-12T04:46:43.479Z,15
2017-05-12T04:47:08.971Z,15
2017-05-12T04:47:34.456Z,15
2017-05-12T04:47:59.901Z,15
2017-05-12T04:48:25.359Z,15
2017-05-12T04:48:50.840Z,15
2017-05-12T04:49:16.320Z,20
2017-05-12T04:49:41.776Z,20
2017-05-12T04:50:07.270Z,20
2017-05-12T04:50:32.748Z,20
2017-05-12T04:50:58.218Z,20
2017-05-12T04:51:23.684Z,20
2017-05-12T04:51:49.134Z,20
2017-05-12T04:52:14.614Z,20
2017-05-12T04:52:40.091Z,20
2017-05-12T04:53:05.563Z,20
2017-05-12T04:53:31.013Z,20
2017-05-12T04:53:56.460Z,20
2017-05-12T04:54:21.990Z,25
2017-05-12T04:54:47.406Z,25
2017-05-12T04:55:12.908Z,25
2017-05-12T04:55:38.317Z,25
2017-05-12T04:56:03.839Z,25
2017-05-12T04:56:29.331Z,25
2017-05-12T04:56:54.791Z,25
2017-05-12T04:57:20.286Z,25
2017-05-12T04:57:45.703Z,25
2017-05-12T04:58:11.177Z,25
2017-05-12T04:58:36.630Z,25
2017-05-12T04:59:02.089Z,25
2017-05-12T04:59:27.677Z,25
2017-05-12T04:59:53.157Z,25
2017-05-12T05:00:18.620Z,25
2017-05-12T05:00:44.090Z,30
2017-05-12T05:01:09.563Z,30
2017-05-12T05:01:35.044Z,30
2017-05-12T05:02:00.501Z,30
2017-05-12T05:02:26.007Z,30
2017-05-12T05:02:51.464Z,30
2017-05-12T05:03:16.946Z,30
2017-05-12T05:03:42.400Z,30
2017-05-12T05:04:07.851Z,30
2017-05-12T05:04:33.326Z,35
2017-05-12T05:04:58.790Z,35
2017-05-12T05:05:24.269Z,35
2017-05-12T05:05:49.740Z,35
2017-05-12T05:06:15.202Z,35
2017-05-12T05:06:40.672Z,35
2017-05-12T05:07:06.155Z,35
2017-05-12T05:07:31.646Z,35
2017-05-12T05:07:57.131Z,35
2017-05-12T05:08:22.648Z,35
2017-05-12T05:08:48.121Z,35
2017-05-12T05:09:13.621Z,35
2017-05-12T05:09:39.092Z,40
2017-05-12T05:10:04.562Z,40
2017-05-12T05:10:30.031Z,40
2017-05-12T05:10:55.517Z,40
2017-05-12T05:11:21.014Z,40
2017-05-12T05:11:46.494Z,40
2017-05-12T05:12:11.979Z,40
2017-05-12T05:12:37.478Z,40
2017-05-12T05:13:02.948Z,40
2017-05-12T05:13:28.432Z,40
2017-05-12T05:13:53.874Z,40
2017-05-12T05:14:19.382Z,45
2017-05-12T05:14:44.876Z,50
2017-05-12T05:15:10.342Z,50
2017-05-12T05:15:35.896Z,55
2017-05-12T05:16:01.387Z,55
2017-05-12T05:16:26.849Z,60
2017-05-12T05:16:52.369Z,60
2017-05-12T05:17:17.841Z,60
2017-05-12T05:17:43.353Z,60
2017-05-12T05:18:08.805Z,60
2017-05-12T05:18:34.297Z,60
2017-05-12T05:18:59.788Z,60
2017-05-12T05:19:25.252Z,60
2017-05-12T05:19:50.771Z,60
2017-05-12T05:20:16.199Z,60
2017-05-12T05:20:41.691Z,60
2017-05-12T05:21:07.176Z,60
2017-05-12T05:21:32.664Z,60
2017-05-12T05:21:58.135Z,55
2017-05-12T05:22:23.621Z,55
2017-05-12T05:22:49.107Z,55
2017-05-12T05:23:14.579Z,50
2017-05-12T05:23:40.054Z,45
2017-05-12T05:24:05.539Z,45
2017-05-12T05:24:31.022Z,40
2017-05-12T05:24:56.550Z,40
2017-05-12T05:25:21.997Z,35
2017-05-12T05:25:47.501Z,35
2017-05-12T05:26:12.973Z,35
2017-05-12T05:26:38.470Z,35
2017-05-12T05:27:03.945Z,35
2017-05-12T05:27:29.415Z,35
2017-05-12T05:27:54.901Z,35
2017-05-12T05:28:20.386Z,35
2017-05-12T05:28:45.887Z,35
2017-05-12T05:29:11.377Z,35
2017-05-12T05:29:36.940Z,35
2017-05-12T05:30:02.391Z,35
2017-05-12T05:30:27.886Z,40
2017-05-12T05:30:53.364Z,40
2017-05-12T05:31:18.840Z,40
2017-05-12T05:31:44.340Z,40
2017-05-12T05:32:09.825Z,40
2017-05-12T05:32:35.307Z,40
2017-05-12T05:33:00.796Z,40
2017-05-12T05:33:26.267Z,45
2017-05-12T05:33:51.758Z,45
2017-05-12T05:34:17.254Z,45
2017-05-12T05:34:42.733Z,50
2017-05-12T05:35:08.215Z,50
2017-05-12T05:35:33.717Z,50
2017-05-12T05:35:59.201Z,55
2017-05-12T05:36:24.782Z,55
2017-05-12T05:36:50.235Z,55
2017-05-12T05:37:15.687Z,55
2017-05-12T05:37:41.146Z,55
2017-05-12T05:38:06.637Z,55
2017-05-12T05:38:32.116Z,55
2017-05-12T05:38:57.592Z,55
2017-05-12T05:39:23.073Z,60
2017-05-12T05:39:48.576Z,60
2017-05-12T05:40:14.035Z,60
2017-05-12T05:40:39.516Z,60
2017-05-12T05:41:05.007Z,60
2017-05-12T05:41:30.462Z,65
2017-05-12T05:41:55.948Z,65
2017-05-12T05:42:21.431Z,65
2017-05-12T05:42:46.897Z,65
2017-05-12T05:43:12.353Z,65
2017-05-12T05:43:37.832Z,65
2017-05-12T05:44:03.300Z,70
2017-05-12T05:44:28.780Z,70
2017-05-12T05:44:54.273Z,70
2017-05-12T05:45:19.750Z,75
2017-05-12T05:45:45.217Z,75
2017-05-12T05:46:10.688Z,75
2017-05-12T05:46:36.171Z,80
2017-05-12T05:47:01.635Z,80
2017-05-12T05:47:27.112Z,80
2017-05-12T05:47:52.601Z,85
2017-05-12T05:48:18.067Z,85
2017-05-12T05:48:43.549Z,85
2017-05-12T05:49:09.037Z,85
2017-05-12T05:49:34.496Z,80
2017-05-12T05:49:59.975Z,80
2017-05-12T05:50:25.434Z,80
2017-05-12T05:50:50.913Z,80
2017-05-12T05:51:16.355Z,80
2017-05-12T05:51:41.857Z,80
2017-05-12T05:52:07.335Z,80
2017-05-12T05:52:32.814Z,80
2017-05-12T05:52:58.277Z,75
2017-05-12T05:53:23.749Z,75
2017-05-12T05:53:49.259Z,75
2017-05-12T05:54:14.719Z,75
2017-05-12T05:54:40.205Z,75
2017-05-12T05:55:05.698Z,75
2017-05-12T05:55:31.170Z,75
2017-05-12T05:55:56.650Z,70
2017-05-12T05:56:22.104Z,70
2017-05-12T05:56:47.618Z,70
2017-05-12T05:57:13.136Z,70
2017-05-12T05:57:38.561Z,70
2017-05-12T05:58:04.039Z,70
2017-05-12T05:58:29.494Z,70
2017-05-12T05:58:54.984Z,70
2017-05-12T05:59:20.485Z,65
2017-05-12T05:59:45.943Z,65
2017-05-12T06:00:11.397Z,65
2017-05-12T06:00:36.866Z,60
2017-05-12T06:01:02.352Z,60
2017-05-12T06:01:27.843Z,55
2017-05-12T06:01:53.303Z,55
2017-05-12T06:02:18.786Z,55
2017-05-12T06:02:44.264Z,60
2017-05-12T06:03:09.726Z,60
2017-05-12T06:03:35.210Z,65
2017-05-12T06:04:00.673Z,65
2017-05-12T06:04:26.147Z,70
2017-05-12T06:04:51.648Z,75
2017-05-12T06:05:17.110Z,75
2017-05-12T06:05:42.587Z,80
2017-05-12T06:06:08.102Z,80
2017-05-12T06:06:33.601Z,80
2017-05-12T06:06:59.048Z,80
2017-05-12T06:07:24.534Z,80
2017-05-12T06:07:50.032Z,75
2017-05-12T06:08:15.514Z,75
2017-05-12T06:08:41.002Z,70
2017-05-12T06:09:06.507Z,70
2017-05-12T06:09:32.012Z,65
2017-05-12T06:09:57.489Z,65
2017-05-12T06:10:22.946Z,65
2017-05-12T06:10:48.427Z,60
2017-05-12T06:11:13.917Z,60
2017-05-12T06:11:39.414Z,60
2017-05-12T06:12:04.903Z,60
2017-05-12T06:12:30.397Z,60
2017-05-12T06:12:55.876Z,65
2017-05-12T06:13:21.360Z,70
2017-05-12T06:13:46.846Z,75
2017-05-12T06:14:12.299Z,80
2017-05-12T06:14:37.798Z,80
2017-05-12T06:15:03.283Z,85
2017-05-12T06:15:28.762Z,90
2017-05-12T06:15:54.252Z,90
2017-05-12T06:16:19.770Z,95
2017-05-12T06:16:45.261Z,95
2017-05-12T06:17:10.755Z,95
2017-05-12T06:17:36.250Z,90
2017-05-12T06:18:01.699Z,90
2017-05-12T06:18:27.179Z,90
2017-05-12T06:18:52.674Z,85
2017-05-12T06:19:18.154Z,85
2017-05-12T06:19:43.681Z,80
2017-05-12T06:20:09.137Z,80
2017-05-12T06:20:34.606Z,80
2017-05-12T06:21:00.059Z,80
2017-05-12T06:21:25.525Z,75
2017-05-12T06:21:51.030Z,75
2017-05-12T06:22:16.469Z,75
2017-05-12T06:22:41.967Z,75
2017-05-12T06:23:07.447Z,75
2017-05-12T06:23:32.934Z,75
2017-05-12T06:23:58.428Z,75
2017-05-12T06:24:23.921Z,75
2017-05-12T06:24:49.406Z,75
2017-05-12T06:25:14.890Z,80
2017-05-12T06:25:40.388Z,80
2017-05-12T06:26:05.874Z,80
2017-05-12T06:26:31.349Z,80
2017-05-12T06:26:56.814Z,80
2017-05-12T06:27:22.257Z,80
2017-05-12T06:27:47.737Z,75
2017-05-12T06:28:13.259Z,75
2017-05-12T06:28:38.764Z,70
2017-05-12T06:29:04.263Z,70
2017-05-12T06:29:29.770Z,70
2017-05-12T06:29:55.242Z,65
2017-05-12T06:30:20.724Z,65
2017-05-12T06:30:46.205Z,65
2017-05-12T06:31:11.653Z,60
2017-05-12T06:31:37.115Z,60
2017-05-12T06:32:02.588Z,55
2017-05-12T06:32:28.040Z,55
2017-05-12T06:32:53.545Z,55
2017-05-12T06:33:19.026Z,55
2017-05-12T06:33:44.520Z,50
2017-05-12T06:34:09.948Z,50
2017-05-12T06:34:35.412Z,50
2017-05-12T06:35:00.926Z,55
2017-05-12T06:35:26.356Z,60
2017-05-12T06:35:51.808Z,60
2017-05-12T06:36:17.265Z,65
2017-05-12T06:36:42.734Z,65
2017-05-12T06:37:08.224Z,70
2017-05-12T06:37:33.729Z,70
2017-05-12T06:37:59.190Z,75
2017-05-12T06:38:24.673Z,75
2017-05-12T06:38:50.159Z,75
2017-05-12T06:39:15.614Z,75
2017-05-12T06:39:41.092Z,75
2017-05-12T06:40:06.564Z,75
2017-05-12T06:40:32.010Z,70
2017-05-12T06:40:57.543Z,70
2017-05-12T06:41:22.990Z,70
2017-05-12T06:41:48.466Z,70
2017-05-12T06:42:13.930Z,70
2017-05-12T06:42:39.420Z,70
2017-05-12T06:43:04.901Z,75
2017-05-12T06:43:30.394Z,80
2017-05-12T06:43:55.850Z,80
2017-05-12T06:44:21.307Z,85
2017-05-12T06:44:46.799Z,85
2017-05-12T06:45:12.266Z,85
2017-05-12T06:45:37.763Z,85
2017-05-12T06:46:03.196Z,85
2017-05-12T06:46:28.662Z,85
2017-05-12T06:46:54.129Z,85
2017-05-12T06:47:19.602Z,85
2017-05-12T06:47:45.094Z,85
2017-05-12T06:48:10.598Z,85
2017-05-12T06:48:36.009Z,85
2017-05-12T06:49:01.516Z,85
2017-05-12T06:49:27.002Z,85
2017-05-12T06:49:52.470Z,85
2017-05-12T06:50:17.953Z,85
2017-05-12T06:50:43.412Z,85
2017-05-12T06:51:08.921Z,85
2017-05-12T06:51:34.407Z,85
2017-05-12T06:51:59.887Z,90
2017-05-12T06:52:25.363Z,90
2017-05-12T06:52:50.811Z,95
2017-05-12T06:53:16.291Z,100
2017-05-12T06:53:41.800Z,105
2017-05-12T06:54:07.269Z,105
2017-05-12T06:54:32.783Z,105
2017-05-12T06:54:58.229Z,105
2017-05-12T06:55:23.701Z,105
2017-05-12T06:55:49.166Z,105
2017-05-12T06:56:14.674Z,105
2017-05-12T06:56:40.140Z,105
2017-05-12T06:57:05.627Z,105
2017-05-12T06:57:31.079Z,100
2017-05-12T06:57:56.566Z,100
2017-05-12T06:58:22.060Z,105
2017-05-12T06:58:47.541Z,105
2017-05-12T06:59:13.021Z,105
2017-05-12T06:59:38.516Z,105
2017-05-12T07:00:03.957Z,105
2017-05-12T07:00:29.444Z,105
2017-05-12T07:00:54.906Z,105
2017-05-12T07:01:20.355Z,105
2017-05-12T07:01:45.841Z,105
2017-05-12T07:02:11.320Z,110
2017-05-12T07:02:36.789Z,115
2017-05-12T07:03:02.262Z,120
2017-05-12T07:03:27.755Z,120
2017-05-12T07:03:53.229Z,125
2017-05-12T07:04:18.726Z,125
2017-05-12T07:04:44.203Z,120
2017-05-12T07:05:09.665Z,120
2017-05-12T07:05:35.133Z,120
2017-05-12T07:06:00.613Z,120
2017-05-12T07:06:26.077Z,120
2017-05-12T07:06:51.563Z,125
2017-05-12T07:07:17.025Z,130
2017-05-12T07:07:42.551Z,135
2017-05-12T07:08:08.037Z,140
2017-05-12T07:08:33.507Z,145
2017-05-12T07:08:58.983Z,145
2017-05-12T07:09:24.465Z,145
2017-05-12T07:09:49.936Z,140
2017-05-12T07:10:15.433Z,140
2017-05-12T07:10:40.883Z,135
2017-05-12T07:11:06.395Z,130
2017-05-12T07:11:31.860Z,130
2017-05-12T07:11:57.400Z,125
2017-05-12T07:12:22.860Z,135
2017-05-12T07:12:48.335Z,130
2017-05-12T07:13:13.810Z,130
2017-05-12T07:13:39.321Z,130
2017-05-12T07:14:04.785Z,130
2017-05-12T07:14:30.248Z,130
2017-05-12T07:14:55.723Z,130
2017-05-12T07:15:21.182Z,130
2017-05-12T07:15:46.664Z,130
2017-05-12T07:16:12.178Z,130
2017-05-12T07:16:37.658Z,130
2017-05-12T07:17:03.124Z,135
2017-05-12T07:17:28.610Z,140
2017-05-12T07:17:54.112Z,145
2017-05-12T07:18:19.595Z,145
2017-05-12T07:18:45.066Z,150
2017-05-12T07:19:10.532Z,150
2017-05-12T07:19:36.014Z,150
2017-05-12T07:20:01.486Z,150
2017-05-12T07:20:26.943Z,150
2017-05-12T07:20:52.439Z,150
2017-05-12T07:21:17.908Z,145
2017-05-12T07:21:43.381Z,145
2017-05-12T07:22:08.847Z,145
2017-05-12T07:22:34.353Z,145
2017-05-12T07:22:59.787Z,140
2017-05-12T07:23:25.272Z,135
2017-05-12T07:23:50.735Z,135
2017-05-12T07:24:16.228Z,130
2017-05-12T07:24:41.711Z,130
2017-05-12T07:25:07.190Z,130
2017-05-12T07:25:32.667Z,135
2017-05-12T07:25:58.116Z,130
2017-05-12T07:26:23.584Z,130
2017-05-12T07:26:49.093Z,135
2017-05-12T07:27:14.585Z,135
2017-05-12T07:27:40.026Z,135
2017-05-12T07:28:05.488Z,135
2017-05-12T07:28:30.975Z,135
2017-05-12T07:28:56.445Z,135
2017-05-12T07:29:21.975Z,140
2017-05-12T07:29:47.446Z,135
2017-05-12T07:30:12.924Z,135
2017-05-12T07:30:38.410Z,135
2017-05-12T07:31:03.914Z,140
2017-05-12T07:31:29.410Z,140
2017-05-12T07:31:54.905Z,140
2017-05-12T07:32:20.379Z,145
2017-05-12T07:32:45.871Z,145
2017-05-12T07:33:11.340Z,140
2017-05-12T07:33:36.808Z,145
2017-05-12T07:34:02.296Z,150
2017-05-12T07:34:27.787Z,150
2017-05-12T07:34:53.260Z,150
2017-05-12T07:35:18.727Z,145
2017-05-12T07:35:44.224Z,140
2017-05-12T07:36:09.686Z,135
2017-05-12T07:36:35.162Z,125
2017-05-12T07:37:00.661Z,120
2017-05-12T07:37:26.120Z,115
2017-05-12T07:37:51.580Z,115
2017-05-12T07:38:17.083Z,110
2017-05-12T07:38:42.560Z,110
2017-05-12T07:39:08.049Z,115
2017-05-12T07:39:33.549Z,115
2017-05-12T07:39:59.024Z,110
2017-05-12T07:40:24.495Z,105
2017-05-12T07:40:49.957Z,105
2017-05-12T07:41:15.440Z,105
2017-05-12T07:41:40.917Z,105
2017-05-12T07:42:06.396Z,100
2017-05-12T07:42:31.877Z,100
2017-05-12T07:42:57.342Z,95
2017-05-12T07:43:22.841Z,95
2017-05-12T07:43:48.333Z,90
2017-05-12T07:44:13.795Z,90
2017-05-12T07:44:39.294Z,90
2017-05-12T07:45:04.765Z,95
2017-05-12T07:45:30.256Z,95
2017-05-12T07:45:55.783Z,100
2017-05-12T07:46:21.273Z,100
2017-05-12T07:46:46.731Z,105
2017-05-12T07:47:12.228Z,105
2017-05-12T07:47:37.729Z,105
2017-05-12T07:48:03.198Z,105
2017-05-12T07:48:28.661Z,100
2017-05-12T07:48:54.208Z,100
2017-05-12T07:49:19.658Z,100
2017-05-12T07:49:45.153Z,100
2017-05-12T07:50:10.620Z,100
2017-05-12T07:50:36.130Z,100
2017-05-12T07:51:01.595Z,105
2017-05-12T07:51:27.065Z,105
2017-05-12T07:51:52.531Z,105
2017-05-12T07:52:18.013Z,110
2017-05-12T07:52:43.491Z,105
2017-05-12T07:53:08.963Z,105
2017-05-12T07:53:34.469Z,105
2017-05-12T07:53:59.919Z,105
2017-05-12T07:54:25.414Z,105
2017-05-12T07:54:50.913Z,110
2017-05-12T07:55:16.381Z,110
2017-05-12T07:55:41.846Z,110
2017-05-12T07:56:07.303Z,110
2017-05-12T07:56:32.789Z,115
2017-05-12T07:56:58.261Z,115
2017-05-12T07:57:23.797Z,115
2017-05-12T07:57:49.275Z,120
2017-05-12T07:58:14.738Z,120
2017-05-12T07:58:40.240Z,120
2017-05-12T07:59:05.684Z,120
2017-05-12T07:59:31.134Z,120
2017-05-12T07:59:56.615Z,120
2017-05-12T08:00:22.077Z,120
2017-05-12T08:00:47.577Z,120
2017-05-12T08:01:13.072Z,125
2017-05-12T08:01:40.254Z,125
2017-05-12T08:02:05.698Z,125
2017-05-12T08:02:31.189Z,125
2017-05-12T08:02:56.655Z,130
2017-05-12T08:03:22.131Z,130
2017-05-12T08:03:47.617Z,130
2017-05-12T08:04:13.104Z,135
2017-05-12T08:04:38.591Z,135
2017-05-12T08:05:04.087Z,135
2017-05-12T08:05:29.530Z,140
2017-05-12T08:05:54.990Z,140
2017-05-12T08:06:20.470Z,145
2017-05-12T08:06:45.960Z,150
2017-05-12T08:07:11.421Z,150
2017-05-12T08:07:36.910Z,155
2017-05-12T08:08:02.380Z,160
2017-05-12T08:08:27.865Z,160
2017-05-12T08:08:53.344Z,165
2017-05-12T08:09:18.798Z,170
2017-05-12T08:09:44.283Z,175
2017-05-12T08:10:09.803Z,180
2017-05-12T08:10:35.275Z,185
2017-05-12T08:11:00.795Z,195
2017-05-12T08:11:26.266Z,200
2017-05-12T08:11:51.734Z,205
2017-05-12T08:12:17.213Z,215
2017-05-12T08:12:42.704Z,220
2017-05-12T08:13:08.200Z,225
2017-05-12T08:13:33.687Z,230
2017-05-12T08:13:59.160Z,235
2017-05-12T08:14:24.616Z,235
2017-05-12T08:14:50.113Z,240
2017-05-12T08:15:15.578Z,240
2017-05-12T08:15:41.030Z,235
2017-05-12T08:16:06.549Z,235
2017-05-12T08:16:31.976Z,235
2017-05-12T08:16:57.450Z,230
2017-05-12T08:17:22.925Z,225
2017-05-12T08:17:48.412Z,225
2017-05-12T08:18:13.910Z,220
2017-05-12T08:18:39.378Z,220
2017-05-12T08:19:04.896Z,215
2017-05-12T08:19:30.342Z,210
2017-05-12T08:19:55.829Z,210
2017-05-12T08:20:21.314Z,205
2017-05-12T08:20:46.806Z,205
2017-05-12T08:21:12.308Z,200
2017-05-12T08:21:37.752Z,200
2017-05-12T08:22:03.257Z,195
2017-05-12T08:22:28.731Z,195
2017-05-12T08:22:54.225Z,195
2017-05-12T08:23:19.722Z,195
2017-05-12T08:23:45.196Z,195
2017-05-12T08:24:10.648Z,195
2017-05-12T08:24:36.124Z,195
2017-05-12T08:25:01.620Z,195
2017-05-12T08:25:27.081Z,195
2017-05-12T08:25:52.547Z,200
2017-05-12T08:26:18.021Z,200
2017-05-12T08:26:43.500Z,205
2017-05-12T08:27:08.980Z,205
2017-05-12T08:27:34.467Z,210
2017-05-12T08:27:59.954Z,210
2017-05-12T08:28:25.425Z,215
2017-05-12T08:28:50.888Z,215
2017-05-12T08:29:16.367Z,220
2017-05-12T08:29:41.868Z,220
2017-05-12T08:30:07.369Z,225
2017-05-12T08:30:32.896Z,230
2017-05-12T08:30:58.348Z,230
2017-05-12T08:31:23.841Z,230
2017-05-12T08:31:49.303Z,240
2017-05-12T08:32:14.777Z,245
2017-05-12T08:32:40.289Z,250
2017-05-12T08:33:05.783Z,255
2017-05-12T08:33:31.237Z,260
2017-05-12T08:33:56.739Z,265
2017-05-12T08:34:22.226Z,270
2017-05-12T08:34:47.719Z,280
2017-05-12T08:35:13.216Z,285
2017-05-12T08:35:38.723Z,290
2017-05-12T08:36:04.174Z,295
2017-05-12T08:36:29.687Z,305
2017-05-12T08:36:55.131Z,305
2017-05-12T08:37:20.599Z,305
2017-05-12T08:37:46.063Z,310
2017-05-12T08:38:11.572Z,310
2017-05-12T08:38:37.065Z,310
2017-05-12T08:39:02.540Z,310
2017-05-12T08:39:28.035Z,310
2017-05-12T08:39:53.546Z,310
2017-05-12T08:40:19.010Z,310
2017-05-12T08:40:44.447Z,310
2017-05-12T08:41:09.947Z,310
2017-05-12T08:41:35.425Z,310
2017-05-12T08:42:00.916Z,310
2017-05-12T08:42:26.396Z,310
2017-05-12T08:42:51.857Z,305
2017-05-12T08:43:17.338Z,300
2017-05-12T08:43:42.817Z,295
2017-05-12T08:44:08.297Z,295
2017-05-12T08:44:33.763Z,295
2017-05-12T08:44:59.246Z,295
2017-05-12T08:45:24.723Z,300
2017-05-12T08:45:50.226Z,295
2017-05-12T08:46:15.728Z,290
2017-05-12T08:46:41.211Z,280
2017-05-12T08:47:06.658Z,265
2017-05-12T08:47:32.109Z,250
2017-05-12T08:47:57.584Z,235
2017-05-12T08:49:21.337Z,180
2017-05-12T08:49:46.793Z,165
2017-05-12T08:50:12.279Z,155
2017-05-12T08:50:37.767Z,180
2017-05-12T08:51:03.257Z,175
2017-05-12T08:51:28.739Z,160
2017-05-12T08:51:54.231Z,165
2017-05-12T08:52:19.724Z,160
2017-05-12T08:52:45.221Z,145
2017-05-12T08:53:10.714Z,175
2017-05-12T08:53:36.190Z,205
2017-05-12T08:54:01.678Z,235
2017-05-12T08:54:27.159Z,225
2017-05-12T08:54:52.622Z,205
2017-05-12T08:55:18.276Z,220
2017-05-12T08:55:43.681Z,235
2017-05-12T08:56:09.190Z,230
2017-05-12T08:56:34.683Z,220
2017-05-12T08:57:00.231Z,245
2017-05-12T08:57:25.708Z,260
2017-05-12T08:57:51.210Z,275
2017-05-12T08:58:16.663Z,260
2017-05-12T08:58:42.193Z,265
2017-05-12T08:59:07.691Z,260
2017-05-12T08:59:33.610Z,260
2017-05-12T08:59:59.081Z,250
2017-05-12T09:00:24.565Z,255
2017-05-12T09:00:50.047Z,240
2017-05-12T09:01:15.543Z,230
2017-05-12T09:01:41.017Z,230
2017-05-12T09:02:06.710Z,240
2017-05-12T09:02:32.189Z,245
2017-05-12T09:02:57.838Z,250
2017-05-12T09:03:23.701Z,250
2017-05-12T09:03:49.180Z,230
2017-05-12T09:04:14.677Z,225
2017-05-12T09:04:40.169Z,225
2017-05-12T09:05:05.680Z,220
2017-05-12T09:05:31.182Z,205
2017-05-12T09:05:56.639Z,195
2017-05-12T09:06:22.108Z,170
2017-05-12T09:06:47.577Z,155
2017-05-12T09:07:13.066Z,170
2017-05-12T09:07:38.555Z,190
2017-05-12T09:08:04.037Z,180
2017-05-12T09:08:29.483Z,170
2017-05-12T09:08:54.965Z,160
2017-05-12T09:09:20.475Z,160
2017-05-12T09:09:45.974Z,155
2017-05-12T09:10:11.443Z,150
2017-05-12T09:10:36.931Z,145
2017-05-12T09:11:02.439Z,140
2017-05-12T09:11:27.949Z,140
2017-05-12T09:11:53.479Z,140
2017-05-12T09:12:18.963Z,140
2017-05-12T09:12:44.471Z,140
2017-05-12T09:13:09.923Z,135
2017-05-12T09:13:35.419Z,125
2017-05-12T09:14:00.937Z,115
2017-05-12T09:14:26.407Z,115
2017-05-12T09:14:51.892Z,115
2017-05-12T09:15:17.367Z,115
2017-05-12T09:15:42.862Z,110
2017-05-12T09:16:08.355Z,110
2017-05-12T09:16:33.831Z,110
2017-05-12T09:16:59.303Z,115
2017-05-12T09:17:24.771Z,110
2017-05-12T09:17:50.257Z,115
2017-05-12T09:18:15.725Z,130
2017-05-12T09:18:41.199Z,140
2017-05-12T09:19:06.698Z,145
2017-05-12T09:19:32.157Z,145
2017-05-12T09:19:57.628Z,150
2017-05-12T09:20:23.080Z,155
2017-05-12T09:20:48.595Z,165
2017-05-12T09:21:14.084Z,155
2017-05-12T09:21:39.523Z,150
2017-05-12T09:22:04.988Z,185
2017-05-12T09:22:30.493Z,210
2017-05-12T09:22:56.006Z,220
2017-05-12T09:23:21.496Z,225
2017-05-12T09:23:46.957Z,240
2017-05-12T09:24:12.408Z,255
2017-05-12T09:24:37.863Z,270
2017-05-12T09:25:03.350Z,285
2017-05-12T09:25:28.817Z,305
2017-05-12T09:25:54.281Z,310
2017-05-12T09:26:19.748Z,325
2017-05-12T09:26:45.201Z,340
2017-05-12T09:27:10.691Z,365
2017-05-12T09:27:36.196Z,375
2017-05-12T09:28:01.694Z,365
2017-05-12T09:28:27.135Z,345
2017-05-12T09:28:52.617Z,325
2017-05-12T09:29:18.115Z,315
2017-05-12T09:29:43.573Z,300
2017-05-12T09:30:09.063Z,290
2017-05-12T09:30:34.564Z,285
2017-05-12T09:31:00.033Z,275
2017-05-12T09:31:25.481Z,270
2017-05-12T09:31:50.971Z,270
2017-05-12T09:32:16.599Z,275
2017-05-12T09:32:42.139Z,275
2017-05-12T09:33:07.602Z,275
2017-05-12T09:33:33.077Z,275
2017-05-12T09:33:58.554Z,270
2017-05-12T09:34:24.046Z,280
2017-05-12T09:34:49.527Z,285
2017-05-12T09:35:15.018Z,290
2017-05-12T09:35:40.516Z,310
2017-05-12T09:36:05.999Z,305
2017-05-12T09:36:31.476Z,295
2017-05-12T09:36:56.957Z,285
2017-05-12T09:37:22.447Z,285
2017-05-12T09:37:47.941Z,300
2017-05-12T09:38:13.423Z,315
2017-05-12T09:38:38.917Z,320
2017-05-12T09:39:04.379Z,315
2017-05-12T09:39:29.866Z,305
2017-05-12T09:39:55.355Z,295
2017-05-12T09:40:20.834Z,305
2017-05-12T09:40:46.309Z,320
2017-05-12T09:41:11.802Z,335
2017-05-12T09:41:37.305Z,355
2017-05-12T09:42:02.757Z,375
2017-05-12T09:42:28.271Z,375
2017-05-12T09:42:53.737Z,390
2017-05-12T09:43:19.217Z,390
2017-05-12T09:43:44.707Z,390
2017-05-12T09:44:10.190Z,390
2017-05-12T09:44:35.680Z,390
2017-05-12T09:45:01.146Z,405
2017-05-12T09:45:26.614Z,405
2017-05-12T09:45:52.102Z,410
2017-05-12T09:46:17.612Z,415
2017-05-12T09:46:43.056Z,415
2017-05-12T09:47:08.559Z,415
2017-05-12T09:47:34.021Z,415
2017-05-12T09:47:59.507Z,405
2017-05-12T09:48:24.995Z,400
2017-05-12T09:48:50.482Z,395
2017-05-12T09:49:15.929Z,375
2017-05-12T09:49:41.449Z,360
2017-05-12T09:50:06.954Z,365
2017-05-12T09:50:32.441Z,360
2017-05-12T09:50:57.928Z,360
2017-05-12T09:51:23.396Z,365
2017-05-12T09:51:48.878Z,355
2017-05-12T09:52:14.334Z,345
2017-05-12T09:52:39.827Z,350
2017-05-12T09:53:05.353Z,355
2017-05-12T09:53:30.781Z,345
2017-05-12T09:53:56.282Z,340
2017-05-12T09:54:21.768Z,335
2017-05-12T09:54:47.254Z,335
2017-05-12T09:55:12.749Z,325
2017-05-12T09:55:38.228Z,310
2017-05-12T09:56:03.702Z,305
2017-05-12T09:56:29.165Z,300
2017-05-12T09:56:54.648Z,285
2017-05-12T09:57:20.143Z,285
2017-05-12T09:57:45.643Z,285
2017-05-12T09:58:11.125Z,285
2017-05-12T09:58:36.620Z,290
2017-05-12T09:59:02.124Z,290
2017-05-12T09:59:27.591Z,290
2017-05-12T09:59:53.098Z,290
2017-05-12T10:00:18.601Z,285
2017-05-12T10:00:44.066Z,280
2017-05-12T10:01:09.578Z,280
2017-05-12T10:01:35.061Z,280
2017-05-12T10:02:00.538Z,275
2017-05-12T10:02:26.029Z,255
2017-05-12T10:02:51.525Z,245
2017-05-12T10:03:17.023Z,240
2017-05-12T10:03:42.515Z,230
2017-05-12T10:04:08.040Z,225
2017-05-12T10:04:33.522Z,220
2017-05-12T10:04:59.002Z,215
2017-05-12T10:05:24.485Z,210
2017-05-12T10:05:49.968Z,215
2017-05-12T10:06:15.444Z,220
2017-05-12T10:06:40.922Z,225
2017-05-12T10:07:06.422Z,225
2017-05-12T10:07:31.887Z,220
2017-05-12T10:07:57.370Z,210
2017-05-12T10:08:22.882Z,210
2017-05-12T10:08:48.374Z,225
2017-05-12T10:09:13.844Z,240
2017-05-12T10:09:39.332Z,240
2017-05-12T10:10:04.809Z,245
2017-05-12T10:10:30.281Z,250
2017-05-12T10:10:55.777Z,255
2017-05-12T10:11:21.233Z,255
2017-05-12T10:11:46.717Z,240
2017-05-12T10:12:12.188Z,230
2017-05-12T10:12:37.659Z,235
2017-05-12T10:13:03.153Z,240
2017-05-12T10:13:28.712Z,230
2017-05-12T10:13:54.193Z,230
2017-05-12T10:14:19.644Z,220
2017-05-12T10:14:45.101Z,195
2017-05-12T10:15:10.584Z,165
2017-05-12T10:15:36.060Z,140
2017-05-12T10:16:01.533Z,120
2017-05-12T10:16:27.013Z,120
2017-05-12T10:16:52.488Z,120
2017-05-12T10:17:18.043Z,125
2017-05-12T10:17:43.550Z,140
2017-05-12T10:18:09.026Z,155
2017-05-12T10:18:34.525Z,185
2017-05-12T10:18:59.968Z,210
2017-05-12T10:19:25.453Z,230
2017-05-12T10:19:50.940Z,235
2017-05-12T10:20:16.454Z,240
2017-05-12T10:20:41.942Z,255
2017-05-12T10:21:07.415Z,270
2017-05-12T10:21:32.904Z,280
2017-05-12T10:21:58.395Z,280
2017-05-12T10:22:23.862Z,275
2017-05-12T10:22:49.361Z,265
2017-05-12T10:23:14.820Z,260
2017-05-12T10:23:40.286Z,260
2017-05-12T10:24:05.779Z,265
2017-05-12T10:24:31.246Z,270
2017-05-12T10:24:56.730Z,275
2017-05-12T10:25:22.202Z,285
2017-05-12T10:25:47.672Z,290
2017-05-12T10:26:13.203Z,275
2017-05-12T10:26:38.656Z,265
2017-05-12T10:27:04.136Z,255
2017-05-12T10:27:29.602Z,245
2017-05-12T10:27:55.091Z,220
2017-05-12T10:28:20.527Z,215
2017-05-12T10:28:46.004Z,225
2017-05-12T10:29:11.527Z,255
2017-05-12T10:29:37.015Z,280
2017-05-12T10:30:02.514Z,295
2017-05-12T10:30:27.984Z,295
2017-05-12T10:30:53.452Z,300
2017-05-12T10:31:18.942Z,285
2017-05-12T10:31:44.432Z,295
2017-05-12T10:32:09.906Z,300
2017-05-12T10:32:35.365Z,305
2017-05-12T10:33:00.846Z,335
2017-05-12T10:33:26.327Z,350
2017-05-12T10:33:51.786Z,360
2017-05-12T10:34:17.265Z,370
2017-05-12T10:34:42.746Z,360
2017-05-12T10:35:08.214Z,365
2017-05-12T10:35:33.708Z,360
2017-05-12T10:35:59.186Z,360
2017-05-12T10:36:24.680Z,360
2017-05-12T10:36:50.145Z,365
2017-05-12T10:37:15.653Z,360
2017-05-12T10:37:41.129Z,365
2017-05-12T10:38:06.592Z,370
2017-05-12T10:38:32.062Z,370
2017-05-12T10:38:57.554Z,370
2017-05-12T10:39:23.024Z,375
2017-05-12T10:39:48.524Z,375
2017-05-12T10:40:14.004Z,375